createdAt,value
2017-08-13T00:00:45.846Z,0
2017-08-13T00:01:47.254Z,0
2017-08-13T00:02:48.656Z,0
2017-08-13T00:03:50.170Z,0
2017-08-13T00:04:51.572Z,0
2017-08-13T00:05:52.978Z,0
2017-08-13T00:06:54.488Z,0
2017-08-13T00:07:55.894Z,0
2017-08-13T00:08:57.297Z,0
2017-08-13T00:09:58.811Z,0
2017-08-13T00:11:00.211Z,0
2017-08-13T00:12:01.900Z,0
2017-08-13T00:13:03.329Z,0
2017-08-13T00:14:04.732Z,0
2017-08-13T00:15:06.420Z,0
2017-08-13T00:16:07.828Z,0
2017-08-13T00:17:09.229Z,0
2017-08-13T00:18:10.742Z,0
2017-08-13T00:19:12.146Z,0
2017-08-13T00:20:13.829Z,0
2017-08-13T00:21:15.232Z,0
2017-08-13T00:22:16.912Z,0
2017-08-13T00:23:18.318Z,0
2017-08-13T00:24:19.723Z,0
2017-08-13T00:25:21.249Z,0
2017-08-13T00:26:22.649Z,0
2017-08-13T00:27:24.051Z,0
2017-08-13T00:28:25.562Z,0
2017-08-13T00:29:26.961Z,0
2017-08-13T00:30:28.640Z,0
2017-08-13T00:31:30.043Z,0
2017-08-13T00:32:31.725Z,0
2017-08-13T00:33:33.130Z,0
2017-08-13T00:34:34.811Z,0
2017-08-13T00:35:36.221Z,0
2017-08-13T00:36:37.898Z,0
2017-08-13T00:37:39.314Z,0
2017-08-13T00:38:40.982Z,0
2017-08-13T00:39:42.384Z,0
2017-08-13T00:40:43.787Z,0
2017-08-13T00:41:45.303Z,0
2017-08-13T00:42:46.706Z,0
2017-08-13T00:43:48.111Z,0
2017-08-13T00:44:49.625Z,0
2017-08-13T00:45:51.077Z,0
2017-08-13T00:46:52.715Z,0
2017-08-13T00:47:54.120Z,0
2017-08-13T00:48:55.796Z,0
2017-08-13T00:49:57.199Z,0
2017-08-13T00:50:58.620Z,0
2017-08-13T00:52:00.116Z,0
2017-08-13T00:53:01.517Z,0
2017-08-13T00:54:02.927Z,0
2017-08-13T00:55:04.438Z,0
2017-08-13T00:56:05.845Z,0
2017-08-13T00:57:07.528Z,0
2017-08-13T00:58:08.933Z,0
2017-08-13T00:59:10.624Z,0
2017-08-13T01:00:12.024Z,0
2017-08-13T01:01:13.693Z,0
2017-08-13T01:02:15.098Z,0
2017-08-13T01:03:16.780Z,0
2017-08-13T01:04:18.189Z,0
2017-08-13T01:05:19.865Z,0
2017-08-13T01:06:21.283Z,0
2017-08-13T01:07:22.950Z,0
2017-08-13T01:08:24.352Z,0
2017-08-13T01:09:25.754Z,0
2017-08-13T01:10:27.265Z,0
2017-08-13T01:11:28.677Z,0
2017-08-13T01:12:30.079Z,0
2017-08-13T01:13:31.602Z,0
2017-08-13T01:14:33.005Z,0
2017-08-13T01:15:34.418Z,0
2017-08-13T01:16:35.913Z,0
2017-08-13T01:17:37.317Z,0
2017-08-13T01:18:38.999Z,0
2017-08-13T01:19:40.405Z,0
2017-08-13T01:20:42.083Z,0
2017-08-13T01:21:43.487Z,0
2017-08-13T01:22:45.170Z,0
2017-08-13T01:23:46.574Z,0
2017-08-13T01:24:47.992Z,0
2017-08-13T01:25:49.489Z,0
2017-08-13T01:26:50.907Z,0
2017-08-13T01:27:52.309Z,0
2017-08-13T01:28:53.813Z,0
2017-08-13T01:29:55.221Z,0
2017-08-13T01:30:56.619Z,0
2017-08-13T01:31:58.132Z,0
2017-08-13T01:32:59.537Z,0
2017-08-13T01:34:00.942Z,0
2017-08-13T01:35:02.453Z,0
2017-08-13T01:36:03.854Z,0
2017-08-13T01:37:05.259Z,0
2017-08-13T01:38:06.777Z,0
2017-08-13T01:39:08.178Z,0
2017-08-13T01:40:09.609Z,0
2017-08-13T01:41:11.094Z,0
2017-08-13T01:42:12.498Z,0
2017-08-13T01:43:13.976Z,0
2017-08-13T01:44:15.379Z,0
2017-08-13T01:45:16.790Z,0
2017-08-13T01:46:18.298Z,0
2017-08-13T01:47:19.709Z,0
2017-08-13T01:48:21.118Z,0
2017-08-13T01:49:22.618Z,0
2017-08-13T01:50:24.020Z,0
2017-08-13T01:51:25.422Z,0
2017-08-13T01:52:26.944Z,0
2017-08-13T01:53:28.342Z,0
2017-08-13T01:54:29.746Z,0
2017-08-13T01:55:31.259Z,0
2017-08-13T01:56:32.679Z,0
2017-08-13T01:57:34.082Z,0
2017-08-13T01:58:35.582Z,0
2017-08-13T01:59:36.993Z,0
2017-08-13T02:00:38.399Z,0
2017-08-13T02:01:39.901Z,0
2017-08-13T02:02:41.307Z,0
2017-08-13T02:03:42.716Z,0
2017-08-13T02:04:44.222Z,0
2017-08-13T02:05:45.654Z,0
2017-08-13T02:06:47.062Z,0
2017-08-13T02:07:48.546Z,0
2017-08-13T02:08:49.950Z,0
2017-08-13T02:09:51.356Z,0
2017-08-13T02:10:52.864Z,0
2017-08-13T02:11:54.267Z,0
2017-08-13T02:12:55.668Z,0
2017-08-13T02:13:57.185Z,0
2017-08-13T02:14:58.590Z,0
2017-08-13T02:16:00.002Z,0
2017-08-13T02:17:01.509Z,0
2017-08-13T02:18:02.914Z,0
2017-08-13T02:19:04.387Z,0
2017-08-13T02:20:05.791Z,0
2017-08-13T02:21:07.217Z,0
2017-08-13T02:22:08.708Z,0
2017-08-13T02:23:10.113Z,0
2017-08-13T02:24:11.532Z,0
2017-08-13T02:25:13.028Z,0
2017-08-13T02:26:14.432Z,0
2017-08-13T02:27:15.916Z,0
2017-08-13T02:28:17.318Z,0
2017-08-13T02:29:18.797Z,0
2017-08-13T02:30:20.203Z,0
2017-08-13T02:31:21.610Z,0
2017-08-13T02:32:23.116Z,0
2017-08-13T02:33:24.518Z,0
2017-08-13T02:34:25.922Z,0
2017-08-13T02:35:27.431Z,0
2017-08-13T02:36:28.834Z,0
2017-08-13T02:37:30.264Z,0
2017-08-13T02:38:31.752Z,0
2017-08-13T02:39:33.176Z,0
2017-08-13T02:40:34.579Z,0
2017-08-13T02:41:36.075Z,0
2017-08-13T02:42:37.493Z,0
2017-08-13T02:43:38.909Z,0
2017-08-13T02:44:40.394Z,0
2017-08-13T02:45:41.797Z,0
2017-08-13T02:46:43.211Z,0
2017-08-13T02:47:44.665Z,0
2017-08-13T02:48:46.077Z,0
2017-08-13T02:49:47.469Z,0
2017-08-13T02:50:49.037Z,0
2017-08-13T02:51:50.439Z,0
2017-08-13T02:52:51.867Z,0
2017-08-13T02:53:53.360Z,0
2017-08-13T02:54:54.760Z,0
2017-08-13T02:55:56.194Z,0
2017-08-13T02:56:57.684Z,0
2017-08-13T02:57:59.087Z,0
2017-08-13T02:59:00.494Z,0
2017-08-13T03:00:01.999Z,0
2017-08-13T03:01:03.406Z,0
2017-08-13T03:02:04.810Z,0
2017-08-13T03:03:06.319Z,0
2017-08-13T03:04:07.736Z,0
2017-08-13T03:05:09.407Z,0
2017-08-13T03:06:10.811Z,0
2017-08-13T03:07:12.286Z,0
2017-08-13T03:08:13.691Z,0
2017-08-13T03:09:15.168Z,0
2017-08-13T03:10:16.567Z,0
2017-08-13T03:11:18.050Z,0
2017-08-13T03:12:19.452Z,0
2017-08-13T03:13:20.928Z,0
2017-08-13T03:14:22.334Z,0
2017-08-13T03:15:23.809Z,0
2017-08-13T03:16:25.210Z,0
2017-08-13T03:17:26.690Z,0
2017-08-13T03:18:28.091Z,0
2017-08-13T03:19:29.571Z,0
2017-08-13T03:20:31.005Z,0
2017-08-13T03:21:32.406Z,0
2017-08-13T03:22:33.892Z,0
2017-08-13T03:23:35.298Z,0
2017-08-13T03:24:36.696Z,0
2017-08-13T03:25:38.216Z,0
2017-08-13T03:26:39.620Z,0
2017-08-13T03:27:41.095Z,0
2017-08-13T03:28:42.507Z,0
2017-08-13T03:29:43.977Z,0
2017-08-13T03:30:45.376Z,0
2017-08-13T03:31:46.855Z,0
2017-08-13T03:32:48.277Z,0
2017-08-13T03:33:49.939Z,0
2017-08-13T03:34:51.347Z,0
2017-08-13T03:35:52.820Z,0
2017-08-13T03:36:54.226Z,0
2017-08-13T03:37:55.628Z,0
2017-08-13T03:38:57.141Z,0
2017-08-13T03:39:58.543Z,0
2017-08-13T03:40:59.992Z,0
2017-08-13T03:42:01.462Z,0
2017-08-13T03:43:02.881Z,0
2017-08-13T03:44:04.285Z,0
2017-08-13T03:45:05.783Z,0
2017-08-13T03:46:07.186Z,4
2017-08-13T03:47:08.590Z,4
2017-08-13T03:48:10.105Z,0
2017-08-13T03:49:11.508Z,0
2017-08-13T03:50:12.990Z,4
2017-08-13T03:51:14.418Z,4
2017-08-13T03:52:15.834Z,4
2017-08-13T03:53:17.313Z,4
2017-08-13T03:54:18.715Z,4
2017-08-13T03:55:20.119Z,8
2017-08-13T03:56:21.630Z,4
2017-08-13T03:57:23.033Z,8
2017-08-13T03:58:25.532Z,8
2017-08-13T03:59:26.933Z,8
2017-08-13T04:00:28.413Z,8
2017-08-13T04:01:29.815Z,12
2017-08-13T04:02:31.297Z,16
2017-08-13T04:03:32.699Z,16
2017-08-13T04:04:34.175Z,20
2017-08-13T04:05:35.583Z,20
2017-08-13T04:06:37.054Z,20
2017-08-13T04:07:38.470Z,24
2017-08-13T04:08:39.936Z,28
2017-08-13T04:09:41.340Z,32
2017-08-13T04:10:42.817Z,32
2017-08-13T04:11:44.226Z,36
2017-08-13T04:12:45.699Z,40
2017-08-13T04:13:47.102Z,44
2017-08-13T04:14:48.579Z,48
2017-08-13T04:15:49.981Z,56
2017-08-13T04:16:51.385Z,56
2017-08-13T04:17:52.898Z,60
2017-08-13T04:18:54.305Z,64
2017-08-13T04:19:55.711Z,68
2017-08-13T04:20:57.225Z,72
2017-08-13T04:21:58.626Z,80
2017-08-13T04:23:00.033Z,84
2017-08-13T04:24:01.541Z,88
2017-08-13T04:25:02.946Z,92
2017-08-13T04:26:04.363Z,96
2017-08-13T04:27:05.865Z,104
2017-08-13T04:28:07.265Z,108
2017-08-13T04:29:08.744Z,112
2017-08-13T04:30:10.149Z,116
2017-08-13T04:31:11.624Z,124
2017-08-13T04:32:13.051Z,132
2017-08-13T04:33:14.457Z,136
2017-08-13T04:34:15.945Z,140
2017-08-13T04:35:17.351Z,148
2017-08-13T04:36:18.755Z,152
2017-08-13T04:37:20.265Z,164
2017-08-13T04:38:21.691Z,172
2017-08-13T04:39:23.036Z,180
2017-08-13T04:40:24.590Z,184
2017-08-13T04:41:25.998Z,188
2017-08-13T04:42:27.402Z,196
2017-08-13T04:43:28.911Z,212
2017-08-13T04:44:30.322Z,224
2017-08-13T04:45:31.752Z,236
2017-08-13T04:46:33.241Z,256
2017-08-13T04:47:34.650Z,264
2017-08-13T04:48:36.067Z,264
2017-08-13T04:49:37.554Z,284
2017-08-13T04:50:38.960Z,296
2017-08-13T04:51:40.368Z,296
2017-08-13T04:52:41.848Z,292
2017-08-13T04:53:43.255Z,304
2017-08-13T04:54:44.754Z,316
2017-08-13T04:55:46.164Z,368
2017-08-13T04:56:47.634Z,420
2017-08-13T04:57:49.039Z,404
2017-08-13T04:58:50.514Z,408
2017-08-13T04:59:51.940Z,404
2017-08-13T05:00:53.395Z,460
2017-08-13T05:01:54.807Z,492
2017-08-13T05:02:56.227Z,508
2017-08-13T05:03:57.717Z,472
2017-08-13T05:04:59.124Z,452
2017-08-13T05:06:00.530Z,468
2017-08-13T05:07:02.036Z,524
2017-08-13T05:08:03.446Z,608
2017-08-13T05:09:04.851Z,624
2017-08-13T05:10:06.357Z,672
2017-08-13T05:11:07.779Z,672
2017-08-13T05:12:09.216Z,620
2017-08-13T05:13:10.678Z,624
2017-08-13T05:14:12.088Z,612
2017-08-13T05:15:13.527Z,616
2017-08-13T05:16:14.999Z,592
2017-08-13T05:17:16.410Z,632
2017-08-13T05:18:17.814Z,720
2017-08-13T05:19:19.322Z,740
2017-08-13T05:20:20.736Z,772
2017-08-13T05:21:22.206Z,728
2017-08-13T05:22:23.617Z,664
2017-08-13T05:23:25.024Z,736
2017-08-13T05:24:26.520Z,756
2017-08-13T05:25:27.925Z,728
2017-08-13T05:26:29.327Z,756
2017-08-13T05:27:30.842Z,764
2017-08-13T05:28:32.250Z,764
2017-08-13T05:29:33.727Z,828
2017-08-13T05:30:35.132Z,860
2017-08-13T05:31:36.601Z,892
2017-08-13T05:32:38.008Z,940
2017-08-13T05:33:39.412Z,912
2017-08-13T05:34:40.925Z,936
2017-08-13T05:35:42.332Z,908
2017-08-13T05:36:43.757Z,904
2017-08-13T05:37:45.246Z,940
2017-08-13T05:38:46.655Z,932
2017-08-13T05:39:48.064Z,904
2017-08-13T05:40:49.568Z,892
2017-08-13T05:41:50.972Z,908
2017-08-13T05:42:52.379Z,1024
2017-08-13T05:43:53.885Z,904
2017-08-13T05:44:55.295Z,928
2017-08-13T05:45:56.767Z,968
2017-08-13T05:46:58.174Z,968
2017-08-13T05:47:59.753Z,972
2017-08-13T05:49:01.200Z,1024
2017-08-13T05:50:02.736Z,1048
2017-08-13T05:51:04.144Z,1048
2017-08-13T05:52:05.620Z,1028
2017-08-13T05:53:07.029Z,1048
2017-08-13T05:54:08.436Z,1044
2017-08-13T05:55:09.938Z,1068
2017-08-13T05:56:11.347Z,1104
2017-08-13T05:57:12.756Z,1108
2017-08-13T05:58:14.260Z,1144
2017-08-13T05:59:15.669Z,1076
2017-08-13T06:00:17.140Z,1128
2017-08-13T06:01:18.562Z,1120
2017-08-13T06:02:20.019Z,1188
2017-08-13T06:03:21.426Z,1260
2017-08-13T06:04:22.833Z,1248
2017-08-13T06:05:24.340Z,1244
2017-08-13T06:06:25.749Z,1200
2017-08-13T06:07:27.158Z,1324
2017-08-13T06:08:28.764Z,1348
2017-08-13T06:09:30.171Z,1260
2017-08-13T06:10:31.574Z,1300
2017-08-13T06:11:33.195Z,1344
2017-08-13T06:12:34.602Z,1352
2017-08-13T06:13:36.010Z,1348
2017-08-13T06:14:37.506Z,1220
2017-08-13T06:15:38.912Z,1084
2017-08-13T06:16:40.494Z,1016
2017-08-13T06:17:41.898Z,1076
2017-08-13T06:18:43.308Z,1004
2017-08-13T06:19:45.014Z,932
2017-08-13T06:20:46.427Z,876
2017-08-13T06:21:47.838Z,888
2017-08-13T06:22:49.555Z,908
2017-08-13T06:23:50.972Z,884
2017-08-13T06:24:52.379Z,892
2017-08-13T06:25:54.067Z,984
2017-08-13T06:26:55.482Z,1048
2017-08-13T06:27:56.889Z,1084
2017-08-13T06:28:58.594Z,884
2017-08-13T06:30:00.001Z,984
2017-08-13T06:31:01.678Z,944
2017-08-13T06:32:03.081Z,1044
2017-08-13T06:33:04.562Z,1056
2017-08-13T06:34:05.969Z,1028
2017-08-13T06:35:07.654Z,1036
2017-08-13T06:36:09.058Z,1044
2017-08-13T06:37:10.735Z,1064
2017-08-13T06:38:12.143Z,1072
2017-08-13T06:39:13.818Z,1080
2017-08-13T06:40:15.227Z,1108
2017-08-13T06:41:16.903Z,1124
2017-08-13T06:42:18.318Z,1144
2017-08-13T06:43:19.987Z,1156
2017-08-13T06:44:21.394Z,1176
2017-08-13T06:45:23.085Z,1196
2017-08-13T06:46:24.491Z,1204
2017-08-13T06:47:26.162Z,1216
2017-08-13T06:48:27.576Z,1236
2017-08-13T06:49:28.985Z,1248
2017-08-13T06:50:30.685Z,1264
2017-08-13T06:51:32.115Z,1264
2017-08-13T06:52:33.539Z,1288
2017-08-13T06:53:35.214Z,1292
2017-08-13T06:54:36.619Z,1296
2017-08-13T06:55:38.034Z,1316
2017-08-13T06:56:39.737Z,1336
2017-08-13T06:57:41.187Z,1368
2017-08-13T06:58:42.575Z,1392
2017-08-13T06:59:44.265Z,1416
2017-08-13T07:00:45.670Z,1424
2017-08-13T07:01:47.082Z,1432
2017-08-13T07:02:48.788Z,988
2017-08-13T07:03:50.201Z,1024
2017-08-13T07:04:51.619Z,1232
2017-08-13T07:05:53.316Z,1168
2017-08-13T07:06:54.748Z,1060
2017-08-13T07:07:56.195Z,1108
2017-08-13T07:08:57.613Z,1120
2017-08-13T07:09:59.285Z,1476
2017-08-13T07:11:00.724Z,1140
2017-08-13T07:12:02.406Z,1632
2017-08-13T07:13:03.780Z,1576
2017-08-13T07:14:05.458Z,1560
2017-08-13T07:15:06.864Z,1432
2017-08-13T07:16:08.538Z,1324
2017-08-13T07:17:09.946Z,1368
2017-08-13T07:18:11.622Z,1444
2017-08-13T07:19:13.035Z,2216
2017-08-13T07:20:14.715Z,2632
2017-08-13T07:21:16.117Z,2696
2017-08-13T07:22:17.816Z,2972
2017-08-13T07:23:19.222Z,2700
2017-08-13T07:24:20.888Z,2332
2017-08-13T07:25:22.295Z,2256
2017-08-13T07:26:23.969Z,2892
2017-08-13T07:27:25.379Z,3000
2017-08-13T07:28:27.067Z,3148
2017-08-13T07:29:28.479Z,3248
2017-08-13T07:30:29.888Z,3212
2017-08-13T07:31:31.483Z,3336
2017-08-13T07:32:32.896Z,3620
2017-08-13T07:33:34.307Z,3736
2017-08-13T07:34:35.897Z,3808
2017-08-13T07:35:37.307Z,4040
2017-08-13T07:36:38.983Z,4200
2017-08-13T07:37:40.391Z,4412
2017-08-13T07:38:42.068Z,4020
2017-08-13T07:39:43.481Z,3504
2017-08-13T07:40:45.154Z,3240
2017-08-13T07:41:46.942Z,2628
2017-08-13T07:42:48.650Z,2120
2017-08-13T07:43:50.055Z,1896
2017-08-13T07:44:51.463Z,1636
2017-08-13T07:45:52.969Z,1988
2017-08-13T07:46:54.379Z,1472
2017-08-13T07:47:55.808Z,1744
2017-08-13T07:48:57.523Z,1980
2017-08-13T07:49:58.904Z,2372
2017-08-13T07:51:00.491Z,2376
2017-08-13T07:52:01.954Z,2076
2017-08-13T07:53:03.681Z,2548
2017-08-13T07:54:05.091Z,2836
2017-08-13T07:55:06.505Z,2916
2017-08-13T07:56:08.193Z,2972
2017-08-13T07:57:09.602Z,3064
2017-08-13T07:58:11.012Z,3320
2017-08-13T07:59:12.727Z,3976
2017-08-13T08:00:14.134Z,3208
2017-08-13T08:01:15.805Z,2924
2017-08-13T08:02:17.212Z,3108
2017-08-13T08:03:18.890Z,3460
2017-08-13T08:04:20.294Z,3568
2017-08-13T08:05:21.704Z,3576
2017-08-13T08:06:23.430Z,3700
2017-08-13T08:07:24.837Z,3732
2017-08-13T08:08:26.247Z,3388
2017-08-13T08:09:27.942Z,3232
2017-08-13T08:10:29.348Z,3144
2017-08-13T08:11:31.025Z,2760
2017-08-13T08:12:32.433Z,2356
2017-08-13T08:13:34.109Z,3308
2017-08-13T08:14:35.521Z,3416
2017-08-13T08:15:37.216Z,3380
2017-08-13T08:16:38.634Z,3288
2017-08-13T08:17:40.305Z,3308
2017-08-13T08:18:41.710Z,3276
2017-08-13T08:19:43.121Z,3448
2017-08-13T08:20:44.807Z,3520
2017-08-13T08:21:46.215Z,3592
2017-08-13T08:22:47.647Z,3720
2017-08-13T08:23:49.334Z,3660
2017-08-13T08:24:50.745Z,3632
2017-08-13T08:25:52.157Z,3668
2017-08-13T08:26:53.871Z,3700
2017-08-13T08:27:55.281Z,3744
2017-08-13T08:28:56.944Z,4028
2017-08-13T08:29:58.355Z,4596
2017-08-13T08:30:59.776Z,5004
2017-08-13T08:32:01.468Z,5104
2017-08-13T08:33:02.906Z,5004
2017-08-13T08:34:04.315Z,4828
2017-08-13T08:35:05.993Z,6792
2017-08-13T08:36:07.436Z,8284
2017-08-13T08:37:09.083Z,6972
2017-08-13T08:38:10.494Z,6492
2017-08-13T08:39:12.188Z,5080
2017-08-13T08:40:13.596Z,4648
2017-08-13T08:41:15.006Z,4716
2017-08-13T08:42:16.692Z,6096
2017-08-13T08:43:18.107Z,5380
2017-08-13T08:44:19.516Z,4516
2017-08-13T08:45:21.219Z,2052
2017-08-13T08:46:22.626Z,1848
2017-08-13T08:47:24.343Z,1784
2017-08-13T08:48:25.761Z,1752
2017-08-13T08:49:27.388Z,2556
2017-08-13T08:50:28.798Z,2340
2017-08-13T08:51:30.211Z,2712
2017-08-13T08:52:31.922Z,8988
2017-08-13T08:53:33.334Z,7536
2017-08-13T08:54:34.740Z,6780
2017-08-13T08:55:36.440Z,9508
2017-08-13T08:56:37.852Z,11452
2017-08-13T08:57:39.264Z,9580
2017-08-13T08:58:40.994Z,6940
2017-08-13T08:59:42.410Z,6236
2017-08-13T09:00:43.818Z,3284
2017-08-13T09:01:45.532Z,2988
2017-08-13T09:02:46.950Z,3144
2017-08-13T09:03:48.359Z,4004
2017-08-13T09:04:50.020Z,5660
2017-08-13T09:05:51.432Z,5860
2017-08-13T09:06:52.859Z,6104
2017-08-13T09:07:54.565Z,5868
2017-08-13T09:08:55.978Z,17824
2017-08-13T09:09:57.392Z,6588
2017-08-13T09:10:59.070Z,6120
2017-08-13T09:12:00.480Z,6412
2017-08-13T09:13:02.093Z,5900
2017-08-13T09:14:03.509Z,5228
2017-08-13T09:15:05.046Z,4492
2017-08-13T09:16:06.448Z,4080
2017-08-13T09:17:08.121Z,3552
2017-08-13T09:18:09.534Z,3064
2017-08-13T09:19:11.206Z,2576
2017-08-13T09:20:12.622Z,2296
2017-08-13T09:21:14.294Z,2144
2017-08-13T09:22:15.698Z,2084
2017-08-13T09:23:17.381Z,1972
2017-08-13T09:24:18.786Z,1908
2017-08-13T09:25:20.464Z,1888
2017-08-13T09:26:21.873Z,1732
2017-08-13T09:27:23.946Z,1524
2017-08-13T09:28:25.393Z,1356
2017-08-13T09:29:27.044Z,1272
2017-08-13T09:30:28.450Z,1240
2017-08-13T09:31:30.132Z,1208
2017-08-13T09:32:31.543Z,1204
2017-08-13T09:33:33.213Z,1332
2017-08-13T09:34:34.628Z,1372
2017-08-13T09:35:36.304Z,1444
2017-08-13T09:36:37.706Z,1564
2017-08-13T09:37:39.394Z,1632
2017-08-13T09:38:40.803Z,1732
2017-08-13T09:39:42.469Z,1900
2017-08-13T09:40:43.900Z,2072
2017-08-13T09:41:45.335Z,2260
2017-08-13T09:42:46.995Z,2508
2017-08-13T09:43:48.403Z,2780
2017-08-13T09:44:49.816Z,3096
2017-08-13T09:45:51.253Z,3504
2017-08-13T09:46:52.673Z,3744
2017-08-13T09:47:54.083Z,3900
2017-08-13T09:48:55.573Z,4088
2017-08-13T09:49:56.986Z,4584
2017-08-13T09:50:58.403Z,5200
2017-08-13T09:51:59.898Z,5884
2017-08-13T09:53:01.311Z,8032
2017-08-13T09:54:02.777Z,19328
2017-08-13T09:55:04.187Z,29568
2017-08-13T09:56:05.707Z,31776
2017-08-13T09:57:07.124Z,63904
2017-08-13T09:58:08.745Z,33472
2017-08-13T09:59:10.154Z,52672
2017-08-13T10:00:11.623Z,46048
2017-08-13T10:01:13.041Z,32672
2017-08-13T10:02:14.450Z,23456
2017-08-13T10:03:15.945Z,30048
2017-08-13T10:04:17.359Z,58944
2017-08-13T10:05:18.768Z,90080
2017-08-13T10:06:20.277Z,108608
2017-08-13T10:07:21.678Z,85248
2017-08-13T10:08:23.149Z,78240
2017-08-13T10:09:24.566Z,89536
2017-08-13T10:10:26.042Z,97536
2017-08-13T10:11:27.493Z,96448
2017-08-13T10:12:28.918Z,91968
2017-08-13T10:13:30.378Z,68032
2017-08-13T10:14:31.792Z,80928
2017-08-13T10:15:33.206Z,7332
2017-08-13T10:16:34.673Z,6580
2017-08-13T10:17:36.086Z,4836
2017-08-13T10:18:37.567Z,22944
2017-08-13T10:19:38.987Z,79552
2017-08-13T10:20:40.448Z,74496
2017-08-13T10:21:41.879Z,68224
2017-08-13T10:22:43.316Z,50240
2017-08-13T10:23:44.758Z,50400
2017-08-13T10:24:47.423Z,41408
2017-08-13T10:25:48.837Z,47008
2017-08-13T10:26:50.363Z,42752
2017-08-13T10:27:51.793Z,36416
2017-08-13T10:28:53.440Z,6292
2017-08-13T10:29:54.926Z,5464
2017-08-13T10:30:56.541Z,8388
2017-08-13T10:31:57.959Z,7716
2017-08-13T10:32:59.412Z,5284
2017-08-13T10:34:00.830Z,4744
2017-08-13T10:35:02.501Z,58080
2017-08-13T10:36:03.919Z,45536
2017-08-13T10:37:05.585Z,28000
2017-08-13T10:38:07.038Z,31840
2017-08-13T10:39:08.669Z,52768
2017-08-13T10:40:10.090Z,64896
2017-08-13T10:41:11.772Z,77952
2017-08-13T10:42:13.186Z,77824
2017-08-13T10:43:14.846Z,46016
2017-08-13T10:44:16.265Z,21440
2017-08-13T10:45:17.929Z,15136
2017-08-13T10:46:19.347Z,12348
2017-08-13T10:47:21.019Z,12068
2017-08-13T10:48:22.432Z,11664
2017-08-13T10:49:24.099Z,14100
2017-08-13T10:50:25.515Z,17152
2017-08-13T10:51:27.213Z,16576
2017-08-13T10:52:28.631Z,16320
2017-08-13T10:53:30.270Z,26592
2017-08-13T10:54:31.695Z,57152
2017-08-13T10:55:33.356Z,28288
2017-08-13T10:56:34.778Z,25152
2017-08-13T10:57:36.441Z,38048
2017-08-13T10:58:37.886Z,23488
2017-08-13T10:59:39.528Z,49152
2017-08-13T11:00:40.952Z,62400
2017-08-13T11:01:42.409Z,55072
2017-08-13T11:02:43.828Z,74880
2017-08-13T11:03:45.495Z,88128
2017-08-13T11:04:46.913Z,10924
2017-08-13T11:05:48.576Z,6992
2017-08-13T11:06:49.999Z,7852
2017-08-13T11:07:51.457Z,5924
2017-08-13T11:08:52.877Z,4576
2017-08-13T11:09:54.549Z,4796
2017-08-13T11:10:55.963Z,4796
2017-08-13T11:11:57.670Z,5000
2017-08-13T11:12:59.083Z,6280
2017-08-13T11:14:00.714Z,36992
2017-08-13T11:15:02.135Z,10656
2017-08-13T11:16:03.800Z,4104
2017-08-13T11:17:05.214Z,3496
2017-08-13T11:18:06.905Z,3252
2017-08-13T11:19:08.319Z,3024
2017-08-13T11:20:09.970Z,2900
2017-08-13T11:21:11.384Z,2848
2017-08-13T11:22:12.802Z,2860
2017-08-13T11:23:14.293Z,3168
2017-08-13T11:24:15.703Z,3704
2017-08-13T11:25:17.132Z,5272
2017-08-13T11:26:18.535Z,4584
2017-08-13T11:27:20.052Z,5280
2017-08-13T11:28:21.469Z,9084
2017-08-13T11:29:22.880Z,11356
2017-08-13T11:30:24.376Z,12236
2017-08-13T11:31:25.789Z,27872
2017-08-13T11:32:27.225Z,40192
2017-08-13T11:33:28.900Z,39296
2017-08-13T11:34:30.316Z,38272
2017-08-13T11:35:31.759Z,35264
2017-08-13T11:36:33.426Z,36224
2017-08-13T11:37:34.868Z,35136
2017-08-13T11:38:36.295Z,30624
2017-08-13T11:39:37.951Z,32576
2017-08-13T11:40:39.374Z,30624
2017-08-13T11:41:40.800Z,21632
2017-08-13T11:42:42.272Z,8740
2017-08-13T11:43:43.690Z,9048
2017-08-13T11:44:45.356Z,8092
2017-08-13T11:45:46.769Z,7608
2017-08-13T11:46:48.443Z,7740
2017-08-13T11:47:49.861Z,7912
2017-08-13T11:48:51.291Z,9556
2017-08-13T11:49:52.768Z,8900
2017-08-13T11:50:54.182Z,7924
2017-08-13T11:51:55.602Z,7956
2017-08-13T11:52:58.036Z,9680
2017-08-13T11:53:59.465Z,10888
2017-08-13T11:55:00.884Z,11596
2017-08-13T11:56:02.437Z,11868
2017-08-13T11:57:03.856Z,12184
2017-08-13T11:58:05.272Z,12064
2017-08-13T11:59:06.757Z,12028
2017-08-13T12:00:08.172Z,12632
2017-08-13T12:01:09.837Z,14400
2017-08-13T12:02:11.256Z,15328
2017-08-13T12:03:12.672Z,13260
2017-08-13T12:04:14.159Z,12032
2017-08-13T12:05:15.578Z,11332
2017-08-13T12:06:17.000Z,10800
2017-08-13T12:07:18.479Z,10308
2017-08-13T12:08:19.895Z,9868
2017-08-13T12:09:21.311Z,9276
2017-08-13T12:10:22.800Z,8912
2017-08-13T12:11:24.219Z,5560
2017-08-13T12:12:25.636Z,5848
2017-08-13T12:13:27.142Z,5988
2017-08-13T12:14:28.555Z,6096
2017-08-13T12:15:29.968Z,5972
2017-08-13T12:16:31.645Z,5732
2017-08-13T12:17:33.062Z,5552
2017-08-13T12:18:34.482Z,5344
2017-08-13T12:19:35.966Z,5140
2017-08-13T12:20:37.417Z,4892
2017-08-13T12:21:39.051Z,4696
2017-08-13T12:22:40.462Z,4744
2017-08-13T12:23:41.876Z,5084
2017-08-13T12:24:43.373Z,5248
2017-08-13T12:25:44.785Z,5224
2017-08-13T12:26:46.214Z,5060
2017-08-13T12:27:47.708Z,4976
2017-08-13T12:28:49.124Z,5100
2017-08-13T12:29:50.780Z,9324
2017-08-13T12:30:52.209Z,12568
2017-08-13T12:31:53.662Z,12524
2017-08-13T12:32:55.077Z,13052
2017-08-13T12:33:56.510Z,10396
2017-08-13T12:34:57.984Z,9392
2017-08-13T12:35:59.399Z,9900
2017-08-13T12:37:00.820Z,12120
2017-08-13T12:38:02.306Z,11456
2017-08-13T12:39:03.720Z,8768
2017-08-13T12:40:05.182Z,7684
2017-08-13T12:41:06.597Z,9312
2017-08-13T12:42:08.084Z,10820
2017-08-13T12:43:09.493Z,8800
2017-08-13T12:44:10.914Z,8868
2017-08-13T12:45:12.387Z,10112
2017-08-13T12:46:13.804Z,10724
2017-08-13T12:47:15.221Z,8276
2017-08-13T12:48:16.707Z,7704
2017-08-13T12:49:18.124Z,7696
2017-08-13T12:50:19.536Z,6752
2017-08-13T12:51:21.027Z,6536
2017-08-13T12:52:22.441Z,6668
2017-08-13T12:53:23.857Z,6880
2017-08-13T12:54:25.353Z,6996
2017-08-13T12:55:26.763Z,8980
2017-08-13T12:56:28.240Z,8708
2017-08-13T12:57:29.653Z,8548
2017-08-13T12:58:31.068Z,8032
2017-08-13T12:59:32.549Z,7988
2017-08-13T13:00:33.962Z,8120
2017-08-13T13:01:35.377Z,7800
2017-08-13T13:02:36.870Z,7472
2017-08-13T13:03:38.286Z,5792
2017-08-13T13:04:39.696Z,5280
2017-08-13T13:05:41.193Z,5036
2017-08-13T13:06:42.604Z,4968
2017-08-13T13:07:44.074Z,5052
2017-08-13T13:08:45.488Z,5140
2017-08-13T13:09:46.955Z,9152
2017-08-13T13:10:48.376Z,3796
2017-08-13T13:11:49.834Z,3464
2017-08-13T13:12:51.244Z,4176
2017-08-13T13:13:52.657Z,3968
2017-08-13T13:14:54.153Z,4848
2017-08-13T13:15:55.567Z,4060
2017-08-13T13:16:56.986Z,4284
2017-08-13T13:17:58.477Z,4712
2017-08-13T13:18:59.884Z,4472
2017-08-13T13:20:01.296Z,4292
2017-08-13T13:21:02.796Z,4288
2017-08-13T13:22:04.215Z,4004
2017-08-13T13:23:05.677Z,3756
2017-08-13T13:24:07.191Z,3636
2017-08-13T13:25:08.790Z,4168
2017-08-13T13:26:10.202Z,4168
2017-08-13T13:27:11.857Z,4256
2017-08-13T13:28:13.269Z,4744
2017-08-13T13:29:14.731Z,5124
2017-08-13T13:30:16.166Z,5308
2017-08-13T13:31:17.617Z,5612
2017-08-13T13:32:19.033Z,5852
2017-08-13T13:33:20.489Z,5736
2017-08-13T13:34:21.914Z,5860
2017-08-13T13:35:23.319Z,5996
2017-08-13T13:36:24.810Z,6156
2017-08-13T13:37:26.224Z,5700
2017-08-13T13:38:27.638Z,5024
2017-08-13T13:39:29.183Z,4516
2017-08-13T13:40:30.594Z,4140
2017-08-13T13:41:32.226Z,3988
2017-08-13T13:42:33.641Z,3896
2017-08-13T13:43:35.099Z,4008
2017-08-13T13:44:36.513Z,3912
2017-08-13T13:45:37.978Z,3528
2017-08-13T13:46:39.392Z,3360
2017-08-13T13:47:40.965Z,3424
2017-08-13T13:48:42.371Z,3316
2017-08-13T13:49:43.783Z,3024
2017-08-13T13:50:45.384Z,2932
2017-08-13T13:51:46.806Z,3008
2017-08-13T13:52:48.216Z,2904
2017-08-13T13:53:49.827Z,2892
2017-08-13T13:54:51.237Z,2896
2017-08-13T13:55:52.800Z,2960
2017-08-13T13:56:54.219Z,3444
2017-08-13T13:57:55.673Z,3420
2017-08-13T13:58:57.088Z,3444
2017-08-13T13:59:58.660Z,3988
2017-08-13T14:01:00.074Z,3932
2017-08-13T14:02:01.636Z,3344
2017-08-13T14:03:03.056Z,2828
2017-08-13T14:04:04.517Z,2468